sensor_id;sensor_type;location;lat;lon;timestamp;pressure;altitude;pressure_sealevel;temperature;humidity
37634;BME280;32048;49.902;22.508;2023-04-10T00:00:31;99297.72;;;5.84;100.00
37634;BME280;32048;49.902;22.508;2023-04-10T00:03:17;99295.78;;;5.92;100.00
37634;BME280;32048;49.902;22.508;2023-04-10T00:05:45;99297.41;;;5.98;100.00
37634;BME280;32048;49.902;22.508;2023-04-10T00:08:12;99294.63;;;6.04;100.00
37634;BME280;32048;49.902;22.508;2023-04-10T00:10:39;99287.56;;;6.08;100.00
37634;BME280;32048;49.902;22.508;2023-04-10T00:13:06;99289.19;;;6.12;100.00
37634;BME280;32048;49.902;22.508;2023-04-10T00:15:33;99290.84;;;6.16;100.00
37634;BME280;32048;49.902;22.508;2023-04-10T00:18:00;99290.72;;;6.20;100.00
37634;BME280;32048;49.902;22.508;2023-04-10T00:20:28;99297.59;;;6.24;100.00
37634;BME280;32048;49.902;22.508;2023-04-10T00:22:55;99293.97;;;6.30;100.00
37634;BME280;32048;49.902;22.508;2023-04-10T00:25:22;99291.25;;;6.35;100.00
37634;BME280;32048;49.902;22.508;2023-04-10T00:27:49;99293.75;;;6.39;100.00
37634;BME280;32048;49.902;22.508;2023-04-10T00:30:16;99302.50;;;6.38;100.00
37634;BME280;32048;49.902;22.508;2023-04-10T00:32:43;99321.78;;;6.36;100.00
37634;BME280;32048;49.902;22.508;2023-04-10T00:35:10;99336.69;;;6.35;100.00
37634;BME280;32048;49.902;22.508;2023-04-10T00:37:38;99327.03;;;6.36;100.00
37634;BME280;32048;49.902;22.508;2023-04-10T00:40:05;99321.69;;;6.40;100.00
37634;BME280;32048;49.902;22.508;2023-04-10T00:42:33;99311.06;;;6.45;100.00
37634;BME280;32048;49.902;22.508;2023-04-10T00:45:00;99293.44;;;6.50;100.00
37634;BME280;32048;49.902;22.508;2023-04-10T00:47:27;99285.50;;;6.53;100.00
37634;BME280;32048;49.902;22.508;2023-04-10T00:49:54;99287.13;;;6.57;100.00
37634;BME280;32048;49.902;22.508;2023-04-10T00:52:23;99279.19;;;6.59;100.00
37634;BME280;32048;49.902;22.508;2023-04-10T00:54:50;99281.75;;;6.62;100.00
37634;BME280;32048;49.902;22.508;2023-04-10T00:57:18;99286.06;;;6.64;100.00
37634;BME280;32048;49.902;22.508;2023-04-10T00:59:45;99287.75;;;6.65;100.00
37634;BME280;32048;49.902;22.508;2023-04-10T01:02:13;99289.44;;;6.68;100.00
37634;BME280;32048;49.902;22.508;2023-04-10T01:04:41;99285.94;;;6.69;100.00
37634;BME280;32048;49.902;22.508;2023-04-10T01:07:29;99283.31;;;6.69;100.00
37634;BME280;32048;49.902;22.508;2023-04-10T01:10:14;99279.75;;;6.70;100.00
37634;BME280;32048;49.902;22.508;2023-04-10T01:16:10;99280.78;;;6.66;100.00
37634;BME280;32048;49.902;22.508;2023-04-10T01:18:44;99272.91;;;6.66;100.00
37634;BME280;32048;49.902;22.508;2023-04-10T01:21:13;99266.78;;;6.65;100.00
37634;BME280;32048;49.902;22.508;2023-04-10T01:24:09;99269.47;;;6.64;100.00
37634;BME280;32048;49.902;22.508;2023-04-10T01:29:14;99276.50;;;6.62;100.00
37634;BME280;32048;49.902;22.508;2023-04-10T01:31:52;99262.47;;;6.63;100.00
37634;BME280;32048;49.902;22.508;2023-04-10T01:34:28;99258.97;;;6.64;100.00
37634;BME280;32048;49.902;22.508;2023-04-10T01:37:03;99268.56;;;6.63;100.00
37634;BME280;32048;49.902;22.508;2023-04-10T01:39:34;99266.78;;;6.65;100.00
37634;BME280;32048;49.902;22.508;2023-04-10T01:42:04;99274.63;;;6.67;100.00
37634;BME280;32048;49.902;22.508;2023-04-10T01:44:33;99273.69;;;6.68;100.00
37634;BME280;32048;49.902;22.508;2023-04-10T01:47:02;99262.28;;;6.71;100.00
37634;BME280;32048;49.902;22.508;2023-04-10T01:49:31;99269.19;;;6.73;100.00
37634;BME280;32048;49.902;22.508;2023-04-10T01:51:59;99267.41;;;6.75;100.00
37634;BME280;32048;49.902;22.508;2023-04-10T01:54:27;99266.47;;;6.76;100.00
37634;BME280;32048;49.902;22.508;2023-04-10T01:56:55;99270.78;;;6.79;100.00
37634;BME280;32048;49.902;22.508;2023-04-10T01:59:22;99266.41;;;6.79;100.00
37634;BME280;32048;49.902;22.508;2023-04-10T02:01:56;99265.63;;;6.76;100.00
37634;BME280;32048;49.902;22.508;2023-04-10T02:04:23;99264.69;;;6.78;100.00
37634;BME280;32048;49.902;22.508;2023-04-10T02:07:43;99268.22;;;6.77;100.00
37634;BME280;32048;49.902;22.508;2023-04-10T02:10:16;99261.16;;;6.79;100.00
37634;BME280;32048;49.902;22.508;2023-04-10T02:12:49;99263.72;;;6.81;100.00
37634;BME280;32048;49.902;22.508;2023-04-10T02:15:20;99266.31;;;6.82;100.00
37634;BME280;32048;49.902;22.508;2023-04-10T02:17:50;99271.47;;;6.85;100.00
37634;BME280;32048;49.902;22.508;2023-04-10T02:20:18;99270.59;;;6.85;100.00
37634;BME280;32048;49.902;22.508;2023-04-10T02:22:46;99267.88;;;6.88;100.00
37634;BME280;32048;49.902;22.508;2023-04-10T02:25:13;99260.94;;;6.87;100.00
37634;BME280;32048;49.902;22.508;2023-04-10T02:27:41;99256.53;;;6.87;100.00
37634;BME280;32048;49.902;22.508;2023-04-10T02:30:08;99258.31;;;6.87;100.00
37634;BME280;32048;49.902;22.508;2023-04-10T02:32:35;99249.56;;;6.86;100.00
37634;BME280;32048;49.902;22.508;2023-04-10T02:35:03;99252.22;;;6.85;100.00
37634;BME280;32048;49.902;22.508;2023-04-10T02:37:30;99247.84;;;6.85;100.00
37634;BME280;32048;49.902;22.508;2023-04-10T02:39:58;99241.69;;;6.86;100.00
37634;BME280;32048;49.902;22.508;2023-04-10T02:42:26;99239.28;;;6.79;100.00
37634;BME280;32048;49.902;22.508;2023-04-10T02:44:53;99234.03;;;6.79;100.00
37634;BME280;32048;49.902;22.508;2023-04-10T02:47:20;99238.38;;;6.80;100.00
37634;BME280;32048;49.902;22.508;2023-04-10T02:49:47;99245.41;;;6.79;100.00
37634;BME280;32048;49.902;22.508;2023-04-10T02:52:14;99230.56;;;6.78;100.00
37634;BME280;32048;49.902;22.508;2023-04-10T02:54:42;99227.88;;;6.80;100.00
37634;BME280;32048;49.902;22.508;2023-04-10T02:57:10;99227.94;;;6.78;100.00
37634;BME280;32048;49.902;22.508;2023-04-10T02:59:37;99227.88;;;6.80;100.00
37634;BME280;32048;49.902;22.508;2023-04-10T03:02:04;99226.13;;;6.80;100.00
37634;BME280;32048;49.902;22.508;2023-04-10T03:04:31;99225.25;;;6.80;100.00
37634;BME280;32048;49.902;22.508;2023-04-10T03:06:59;99221.78;;;6.79;100.00
37634;BME280;32048;49.902;22.508;2023-04-10T03:09:26;99219.94;;;6.81;100.00
37634;BME280;32048;49.902;22.508;2023-04-10T03:11:53;99222.56;;;6.81;100.00
37634;BME280;32048;49.902;22.508;2023-04-10T03:14:20;99221.72;;;6.81;100.00
37634;BME280;32048;49.902;22.508;2023-04-10T03:16:47;99217.28;;;6.83;100.00
37634;BME280;32048;49.902;22.508;2023-04-10T03:19:14;99208.59;;;6.81;100.00
37634;BME280;32048;49.902;22.508;2023-04-10T03:21:42;99212.91;;;6.83;100.00
37634;BME280;32048;49.902;22.508;2023-04-10T03:24:09;99213.78;;;6.84;100.00
37634;BME280;32048;49.902;22.508;2023-04-10T03:26:36;99213.72;;;6.85;100.00
37634;BME280;32048;49.902;22.508;2023-04-10T03:29:03;99221.56;;;6.87;100.00
37634;BME280;32048;49.902;22.508;2023-04-10T03:31:30;99226.69;;;6.90;100.00
37634;BME280;32048;49.902;22.508;2023-04-10T03:33:57;99226.66;;;6.92;100.00
37634;BME280;32048;49.902;22.508;2023-04-10T03:36:24;99231.88;;;6.93;100.00
37634;BME280;32048;49.902;22.508;2023-04-10T03:38:52;99232.69;;;6.95;100.00
37634;BME280;32048;49.902;22.508;2023-04-10T03:41:19;99232.63;;;6.97;100.00
37634;BME280;32048;49.902;22.508;2023-04-10T03:43:50;99232.59;;;6.98;100.00
37634;BME280;32048;49.902;22.508;2023-04-10T03:46:17;99231.78;;;6.96;100.00
37634;BME280;32048;49.902;22.508;2023-04-10T03:48:44;99231.78;;;6.96;100.00
37634;BME280;32048;49.902;22.508;2023-04-10T03:51:11;99237.00;;;6.98;100.00
37634;BME280;32048;49.902;22.508;2023-04-10T03:53:38;99234.31;;;6.99;100.00
37634;BME280;32048;49.902;22.508;2023-04-10T03:56:06;99234.38;;;6.98;100.00
37634;BME280;32048;49.902;22.508;2023-04-10T03:58:33;99229.19;;;6.95;100.00
37634;BME280;32048;49.902;22.508;2023-04-10T04:01:01;99227.44;;;6.95;100.00
37634;BME280;32048;49.902;22.508;2023-04-10T04:03:28;99233.59;;;6.94;100.00
37634;BME280;32048;49.902;22.508;2023-04-10T04:05:55;99232.78;;;6.92;100.00
37634;BME280;32048;49.902;22.508;2023-04-10T04:08:22;99232.72;;;6.94;100.00
37634;BME280;32048;49.902;22.508;2023-04-10T04:10:49;99233.59;;;6.94;100.00
37634;BME280;32048;49.902;22.508;2023-04-10T04:13:16;99231.88;;;6.93;100.00
37634;BME280;32048;49.902;22.508;2023-04-10T04:15:43;99237.06;;;6.95;100.00
37634;BME280;32048;49.902;22.508;2023-04-10T04:18:10;99239.69;;;6.95;100.00
37634;BME280;32048;49.902;22.508;2023-04-10T04:20:37;99237.84;;;6.98;100.00
37634;BME280;32048;49.902;22.508;2023-04-10T04:23:04;99243.09;;;6.98;100.00
37634;BME280;32048;49.902;22.508;2023-04-10T04:25:31;99234.41;;;6.96;100.00
37634;BME280;32048;49.902;22.508;2023-04-10T04:27:58;99235.19;;;7.00;100.00
37634;BME280;32048;49.902;22.508;2023-04-10T04:30:25;99241.25;;;7.02;100.00
37634;BME280;32048;49.902;22.508;2023-04-10T04:32:52;99247.34;;;7.02;100.00
37634;BME280;32048;49.902;22.508;2023-04-10T04:35:20;99245.59;;;7.03;100.00
37634;BME280;32048;49.902;22.508;2023-04-10T04:37:47;99250.81;;;7.04;100.00
37634;BME280;32048;49.902;22.508;2023-04-10T04:40:14;99241.97;;;7.07;100.00
37634;BME280;32048;49.902;22.508;2023-04-10T04:42:41;99244.56;;;7.08;100.00
37634;BME280;32048;49.902;22.508;2023-04-10T04:45:09;99242.69;;;7.12;100.00
37634;BME280;32048;49.902;22.508;2023-04-10T04:47:36;99248.75;;;7.14;100.00
37634;BME280;32048;49.902;22.508;2023-04-10T04:50:03;99248.75;;;7.14;100.00
37634;BME280;32048;49.902;22.508;2023-04-10T04:52:30;99254.78;;;7.18;100.00
37634;BME280;32048;49.902;22.508;2023-04-10T04:54:58;99256.38;;;7.22;100.00
37634;BME280;32048;49.902;22.508;2023-04-10T04:57:25;99258.84;;;7.28;100.00
37634;BME280;32048;49.902;22.508;2023-04-10T04:59:52;99263.81;;;7.37;100.00
37634;BME280;32048;49.902;22.508;2023-04-10T05:02:19;99259.19;;;7.45;100.00
37634;BME280;32048;49.902;22.508;2023-04-10T05:04:48;99265.88;;;7.56;100.00
37634;BME280;32048;49.902;22.508;2023-04-10T05:07:15;99265.59;;;7.65;100.00
37634;BME280;32048;49.902;22.508;2023-04-10T05:09:43;99271.34;;;7.76;100.00
37634;BME280;32048;49.902;22.508;2023-04-10T05:12:10;99279.69;;;7.89;100.00
37634;BME280;32048;49.902;22.508;2023-04-10T05:14:37;99267.94;;;8.01;100.00
37634;BME280;32048;49.902;22.508;2023-04-10T05:17:04;99273.69;;;8.12;100.00
37634;BME280;32048;49.902;22.508;2023-04-10T05:19:31;99275.88;;;8.24;100.00
37634;BME280;32048;49.902;22.508;2023-04-10T05:21:58;99277.19;;;8.38;100.00
37634;BME280;32048;49.902;22.508;2023-04-10T05:24:25;99279.47;;;8.48;100.00
37634;BME280;32048;49.902;22.508;2023-04-10T05:26:52;99278.31;;;8.57;100.00
37634;BME280;32048;49.902;22.508;2023-04-10T05:29:19;99280.59;;;8.66;100.00
37634;BME280;32048;49.902;22.508;2023-04-10T05:31:46;99276.66;;;8.78;100.00
37634;BME280;32048;49.902;22.508;2023-04-10T05:34:13;99280.72;;;8.87;100.00
37634;BME280;32048;49.902;22.508;2023-04-10T05:36:40;99285.63;;;8.98;100.00
37634;BME280;32048;49.902;22.508;2023-04-10T05:39:07;99278.22;;;9.07;100.00
37634;BME280;32048;49.902;22.508;2023-04-10T05:41:34;99278.03;;;9.12;100.00
37634;BME280;32048;49.902;22.508;2023-04-10T05:44:01;99272.78;;;9.12;100.00
37634;BME280;32048;49.902;22.508;2023-04-10T05:46:28;99271.69;;;9.18;100.00
37634;BME280;32048;49.902;22.508;2023-04-10T05:48:57;99275.19;;;9.18;100.00
37634;BME280;32048;49.902;22.508;2023-04-10T05:51:23;99268.09;;;9.20;100.00
37634;BME280;32048;49.902;22.508;2023-04-10T05:53:52;99278.56;;;9.22;100.00
37634;BME280;32048;49.902;22.508;2023-04-10T05:56:19;99277.59;;;9.24;100.00
37634;BME280;32048;49.902;22.508;2023-04-10T05:58:47;99271.75;;;9.40;100.00
37634;BME280;32048;49.902;22.508;2023-04-10T06:01:13;99275.28;;;9.61;100.00
37634;BME280;32048;49.902;22.508;2023-04-10T06:03:41;99276.72;;;9.91;100.00
37634;BME280;32048;49.902;22.508;2023-04-10T06:06:08;99280.88;;;10.17;100.00
37634;BME280;32048;49.902;22.508;2023-04-10T06:08:35;99281.81;;;10.38;100.00
37634;BME280;32048;49.902;22.508;2023-04-10T06:11:02;99278.44;;;10.55;100.00
37634;BME280;32048;49.902;22.508;2023-04-10T06:13:29;99287.78;;;10.63;100.00
37634;BME280;32048;49.902;22.508;2023-04-10T06:15:58;99280.41;;;10.71;100.00
37634;BME280;32048;49.902;22.508;2023-04-10T06:18:25;99284.22;;;10.84;100.00
37634;BME280;32048;49.902;22.508;2023-04-10T06:20:52;99280.16;;;10.96;100.00
37634;BME280;32048;49.902;22.508;2023-04-10T06:23:19;99278.69;;;11.09;100.00
37634;BME280;32048;49.902;22.508;2023-04-10T06:25:47;99280.97;;;11.17;100.00
37634;BME280;32048;49.902;22.508;2023-04-10T06:28:14;99278.81;;;11.25;100.00
37634;BME280;32048;49.902;22.508;2023-04-10T06:30:41;99284.91;;;11.27;100.00
37634;BME280;32048;49.902;22.508;2023-04-10T06:33:08;99286.31;;;11.34;100.00
37634;BME280;32048;49.902;22.508;2023-04-10T06:35:36;99280.63;;;11.43;100.00
37634;BME280;32048;49.902;22.508;2023-04-10T06:38:03;99285.59;;;11.50;100.00
37634;BME280;32048;49.902;22.508;2023-04-10T06:40:30;99283.06;;;11.48;100.00
37634;BME280;32048;49.902;22.508;2023-04-10T06:43:00;99289.41;;;11.44;100.00
37634;BME280;32048;49.902;22.508;2023-04-10T06:45:27;99287.78;;;11.41;100.00
37634;BME280;32048;49.902;22.508;2023-04-10T06:47:54;99293.28;;;11.37;100.00
37634;BME280;32048;49.902;22.508;2023-04-10T06:50:21;99295.78;;;11.40;100.00
37634;BME280;32048;49.902;22.508;2023-04-10T06:52:49;99300.63;;;11.49;100.00
37634;BME280;32048;49.902;22.508;2023-04-10T06:55:16;99300.91;;;11.62;100.00
37634;BME280;32048;49.902;22.508;2023-04-10T06:57:43;99295.47;;;11.65;98.73
37634;BME280;32048;49.902;22.508;2023-04-10T07:00:11;99303.19;;;11.70;98.63
37634;BME280;32048;49.902;22.508;2023-04-10T07:02:39;99314.75;;;11.86;98.52
37634;BME280;32048;49.902;22.508;2023-04-10T07:05:07;99306.13;;;12.19;99.23
37634;BME280;32048;49.902;22.508;2023-04-10T07:07:34;99304.09;;;12.76;99.86
37634;BME280;32048;49.902;22.508;2023-04-10T07:10:01;99307.78;;;13.56;95.36
37634;BME280;32048;49.902;22.508;2023-04-10T07:12:29;99303.16;;;14.68;88.14
37634;BME280;32048;49.902;22.508;2023-04-10T07:14:59;99290.94;;;15.93;82.79
37634;BME280;32048;49.902;22.508;2023-04-10T07:17:27;99301.28;;;16.90;73.99
37634;BME280;32048;49.902;22.508;2023-04-10T07:19:54;99305.22;;;17.36;68.91
37634;BME280;32048;49.902;22.508;2023-04-10T07:22:21;99293.19;;;17.67;67.21
37634;BME280;32048;49.902;22.508;2023-04-10T07:24:48;99292.72;;;17.86;63.54
37634;BME280;32048;49.902;22.508;2023-04-10T07:27:15;99294.34;;;17.76;62.46
37634;BME280;32048;49.902;22.508;2023-04-10T07:29:42;99303.81;;;17.43;62.41
37634;BME280;32048;49.902;22.508;2023-04-10T07:32:09;99299.38;;;17.05;64.41
37634;BME280;32048;49.902;22.508;2023-04-10T07:34:37;99290.34;;;16.68;65.87
37634;BME280;32048;49.902;22.508;2023-04-10T07:37:04;99303.75;;;16.40;66.80
37634;BME280;32048;49.902;22.508;2023-04-10T07:39:31;99306.31;;;16.02;67.50
37634;BME280;32048;49.902;22.508;2023-04-10T07:41:58;99300.84;;;15.62;69.46
37634;BME280;32048;49.902;22.508;2023-04-10T07:44:26;99302.31;;;15.39;72.77
37634;BME280;32048;49.902;22.508;2023-04-10T07:46:53;99295.22;;;15.25;72.92
37634;BME280;32048;49.902;22.508;2023-04-10T07:49:22;99302.34;;;15.10;74.45
37634;BME280;32048;49.902;22.508;2023-04-10T07:51:49;99297.78;;;14.98;75.66
37634;BME280;32048;49.902;22.508;2023-04-10T07:54:17;99302.78;;;14.88;76.96
37634;BME280;32048;49.902;22.508;2023-04-10T07:56:44;99304.03;;;14.83;76.86
37634;BME280;32048;49.902;22.508;2023-04-10T07:59:11;99299.38;;;14.86;78.54
37634;BME280;32048;49.902;22.508;2023-04-10T08:01:38;99295.59;;;15.05;77.98
37634;BME280;32048;49.902;22.508;2023-04-10T08:04:06;99286.19;;;15.28;76.98
37634;BME280;32048;49.902;22.508;2023-04-10T08:06:34;99294.22;;;15.55;75.84
37634;BME280;32048;49.902;22.508;2023-04-10T08:09:01;99284.59;;;15.67;74.49
37634;BME280;32048;49.902;22.508;2023-04-10T08:11:30;99290.22;;;15.76;75.26
37634;BME280;32048;49.902;22.508;2023-04-10T08:13:59;99276.47;;;15.97;76.56
37634;BME280;32048;49.902;22.508;2023-04-10T08:16:32;99280.72;;;16.39;74.57
37634;BME280;32048;49.902;22.508;2023-04-10T08:18:59;99277.28;;;16.90;72.86
37634;BME280;32048;49.902;22.508;2023-04-10T08:21:29;99278.53;;;17.36;69.29
37634;BME280;32048;49.902;22.508;2023-04-10T08:24:00;99270.09;;;17.66;67.34
37634;BME280;32048;49.902;22.508;2023-04-10T08:26:28;99264.91;;;17.89;64.80
37634;BME280;32048;49.902;22.508;2023-04-10T08:28:56;99261.38;;;18.12;65.13
37634;BME280;32048;49.902;22.508;2023-04-10T08:31:24;99271.41;;;18.68;64.46
37634;BME280;32048;49.902;22.508;2023-04-10T08:33:53;99274.16;;;19.47;57.89
37634;BME280;32048;49.902;22.508;2023-04-10T08:36:20;99272.09;;;20.05;53.70
37634;BME280;32048;49.902;22.508;2023-04-10T08:38:47;99266.19;;;20.44;52.87
37634;BME280;32048;49.902;22.508;2023-04-10T08:41:17;99272.22;;;20.99;52.24
37634;BME280;32048;49.902;22.508;2023-04-10T08:43:44;99267.22;;;21.46;47.75
37634;BME280;32048;49.902;22.508;2023-04-10T08:46:13;99262.16;;;21.63;48.35
37634;BME280;32048;49.902;22.508;2023-04-10T08:48:57;99271.00;;;21.94;49.18
37634;BME280;32048;49.902;22.508;2023-04-10T08:51:38;99272.38;;;22.86;45.63
37634;BME280;32048;49.902;22.508;2023-04-10T08:54:23;99271.41;;;23.89;42.39
37634;BME280;32048;49.902;22.508;2023-04-10T08:56:53;99264.38;;;24.94;39.44
37634;BME280;32048;49.902;22.508;2023-04-10T08:59:20;99257.53;;;25.77;37.80
37634;BME280;32048;49.902;22.508;2023-04-10T09:01:48;99251.72;;;26.47;36.78
37634;BME280;32048;49.902;22.508;2023-04-10T09:04:15;99251.81;;;27.11;35.99
37634;BME280;32048;49.902;22.508;2023-04-10T09:06:45;99249.56;;;27.70;34.16
37634;BME280;32048;49.902;22.508;2023-04-10T09:09:12;99248.84;;;28.08;33.93
37634;BME280;32048;49.902;22.508;2023-04-10T09:14:24;99249.50;;;28.56;32.75
37634;BME280;32048;49.902;22.508;2023-04-10T09:16:52;99248.75;;;29.00;31.29
37634;BME280;32048;49.902;22.508;2023-04-10T09:19:29;99244.06;;;29.23;31.62
37634;BME280;32048;49.902;22.508;2023-04-10T09:21:57;99249.88;;;29.50;30.89
37634;BME280;32048;49.902;22.508;2023-04-10T09:24:24;99239.81;;;29.80;30.83
37634;BME280;32048;49.902;22.508;2023-04-10T09:26:52;99238.00;;;29.88;29.13
37634;BME280;32048;49.902;22.508;2023-04-10T09:29:19;99232.88;;;29.78;29.71
37634;BME280;32048;49.902;22.508;2023-04-10T09:31:46;99231.88;;;30.00;30.09
37634;BME280;32048;49.902;22.508;2023-04-10T09:34:17;99228.50;;;30.41;29.11
37634;BME280;32048;49.902;22.508;2023-04-10T09:36:58;99229.38;;;30.70;29.20
37634;BME280;32048;49.902;22.508;2023-04-10T09:39:34;99226.53;;;30.85;27.35
37634;BME280;32048;49.902;22.508;2023-04-10T09:42:02;99219.63;;;30.33;29.18
37634;BME280;32048;49.902;22.508;2023-04-10T09:44:31;99226.53;;;29.41;30.17
37634;BME280;32048;49.902;22.508;2023-04-10T09:47:17;99225.66;;;28.81;29.13
37634;BME280;32048;49.902;22.508;2023-04-10T09:54:47;99211.97;;;26.56;33.97
37634;BME280;32048;49.902;22.508;2023-04-10T09:57:17;99212.16;;;25.62;34.77
37634;BME280;32048;49.902;22.508;2023-04-10T09:59:49;99210.03;;;24.27;37.57
37634;BME280;32048;49.902;22.508;2023-04-10T10:02:18;99197.97;;;23.77;40.10
37634;BME280;32048;49.902;22.508;2023-04-10T10:04:46;99196.94;;;23.78;41.17
37634;BME280;32048;49.902;22.508;2023-04-10T10:07:15;99193.84;;;24.71;39.15
37634;BME280;32048;49.902;22.508;2023-04-10T10:09:44;99185.28;;;25.52;37.98
37634;BME280;32048;49.902;22.508;2023-04-10T10:12:14;99185.38;;;26.18;36.53
37634;BME280;32048;49.902;22.508;2023-04-10T10:15:08;99168.94;;;26.69;33.92
37634;BME280;32048;49.902;22.508;2023-04-10T10:17:44;99165.94;;;27.03;30.80
37634;BME280;32048;49.902;22.508;2023-04-10T10:20:13;99164.84;;;27.29;32.74
37634;BME280;32048;49.902;22.508;2023-04-10T10:22:44;99171.13;;;27.21;31.45
37634;BME280;32048;49.902;22.508;2023-04-10T10:25:12;99166.28;;;27.00;32.37
37634;BME280;32048;49.902;22.508;2023-04-10T10:27:40;99161.13;;;26.66;33.59
37634;BME280;32048;49.902;22.508;2023-04-10T10:30:08;99160.44;;;26.72;33.14
37634;BME280;32048;49.902;22.508;2023-04-10T10:32:55;99148.66;;;26.16;33.51
37634;BME280;32048;49.902;22.508;2023-04-10T10:35:25;99149.03;;;25.29;34.62
37634;BME280;32048;49.902;22.508;2023-04-10T10:37:57;99145.75;;;24.22;36.68
37634;BME280;32048;49.902;22.508;2023-04-10T10:40:41;99143.97;;;23.23;38.80
37634;BME280;32048;49.902;22.508;2023-04-10T10:43:20;99134.41;;;22.27;39.87
37634;BME280;32048;49.902;22.508;2023-04-10T10:45:59;99135.81;;;22.01;43.00
37634;BME280;32048;49.902;22.508;2023-04-10T10:48:27;99121.59;;;22.86;42.92
37634;BME280;32048;49.902;22.508;2023-04-10T10:50:56;99120.75;;;23.76;40.08
37634;BME280;32048;49.902;22.508;2023-04-10T10:53:37;99111.03;;;24.80;37.45
37634;BME280;32048;49.902;22.508;2023-04-10T10:58:46;99108.88;;;26.57;32.88
37634;BME280;32048;49.902;22.508;2023-04-10T11:01:14;99105.31;;;27.35;32.23
37634;BME280;32048;49.902;22.508;2023-04-10T11:03:42;99102.81;;;27.26;31.53
37634;BME280;32048;49.902;22.508;2023-04-10T11:06:17;99102.41;;;26.50;32.18
37634;BME280;32048;49.902;22.508;2023-04-10T11:08:50;99098.06;;;25.67;33.51
37634;BME280;32048;49.902;22.508;2023-04-10T11:11:21;99094.22;;;24.60;34.03
37634;BME280;32048;49.902;22.508;2023-04-10T11:16:40;99100.94;;;22.39;37.72
37634;BME280;32048;49.902;22.508;2023-04-10T11:19:11;99090.56;;;21.77;39.96
37634;BME280;32048;49.902;22.508;2023-04-10T11:22:01;99088.28;;;21.14;41.74
37634;BME280;32048;49.902;22.508;2023-04-10T11:24:54;99095.06;;;20.78;43.70
37634;BME280;32048;49.902;22.508;2023-04-10T11:27:44;99093.19;;;20.59;41.80
37634;BME280;32048;49.902;22.508;2023-04-10T11:30:47;99087.84;;;20.38;41.03
37634;BME280;32048;49.902;22.508;2023-04-10T11:33:16;99088.38;;;20.32;40.38
37634;BME280;32048;49.902;22.508;2023-04-10T11:35:45;99077.41;;;20.14;40.55
37634;BME280;32048;49.902;22.508;2023-04-10T11:38:14;99079.53;;;20.41;40.10
37634;BME280;32048;49.902;22.508;2023-04-10T11:41:02;99074.66;;;20.96;38.32
37634;BME280;32048;49.902;22.508;2023-04-10T11:43:30;99076.16;;;21.49;36.68
37634;BME280;32048;49.902;22.508;2023-04-10T11:46:07;99071.28;;;21.14;36.33
37634;BME280;32048;49.902;22.508;2023-04-10T11:48:35;99075.03;;;20.51;37.18
37634;BME280;32048;49.902;22.508;2023-04-10T11:51:11;99063.56;;;19.88;37.40
37634;BME280;32048;49.902;22.508;2023-04-10T11:53:39;99064.16;;;19.70;37.60
37634;BME280;32048;49.902;22.508;2023-04-10T11:56:20;99076.59;;;19.28;39.69
37634;BME280;32048;49.902;22.508;2023-04-10T11:58:50;99067.31;;;19.11;39.39
37634;BME280;32048;49.902;22.508;2023-04-10T12:01:21;99070.66;;;18.81;40.41
37634;BME280;32048;49.902;22.508;2023-04-10T12:03:49;99060.47;;;18.41;42.33
37634;BME280;32048;49.902;22.508;2023-04-10T12:06:17;99056.19;;;18.16;42.40
37634;BME280;32048;49.902;22.508;2023-04-10T12:08:46;99058.09;;;17.91;43.37
37634;BME280;32048;49.902;22.508;2023-04-10T12:11:23;99056.59;;;17.76;44.24
37634;BME280;32048;49.902;22.508;2023-04-10T12:13:52;99061.31;;;17.72;44.99
37634;BME280;32048;49.902;22.508;2023-04-10T12:16:20;99065.03;;;17.94;44.85
37634;BME280;32048;49.902;22.508;2023-04-10T12:18:48;99055.09;;;18.63;42.86
37634;BME280;32048;49.902;22.508;2023-04-10T12:21:16;99056.91;;;19.29;42.02
37634;BME280;32048;49.902;22.508;2023-04-10T12:23:43;99054.63;;;19.78;40.13
37634;BME280;32048;49.902;22.508;2023-04-10T12:28:41;99049.28;;;20.08;38.77
37634;BME280;32048;49.902;22.508;2023-04-10T12:31:08;99050.34;;;20.48;38.05
37634;BME280;32048;49.902;22.508;2023-04-10T12:33:35;99058.97;;;20.21;38.09
37634;BME280;32048;49.902;22.508;2023-04-10T12:36:03;99049.25;;;19.24;43.43
37634;BME280;32048;49.902;22.508;2023-04-10T12:38:42;99039.75;;;17.86;46.45
37634;BME280;32048;49.902;22.508;2023-04-10T12:41:11;99046.03;;;17.39;49.58
37634;BME280;32048;49.902;22.508;2023-04-10T12:43:39;99060.06;;;16.69;52.83
37634;BME280;32048;49.902;22.508;2023-04-10T12:46:08;99045.63;;;15.70;57.29
37634;BME280;32048;49.902;22.508;2023-04-10T12:48:35;99057.75;;;15.22;60.84
37634;BME280;32048;49.902;22.508;2023-04-10T12:51:03;99059.34;;;14.70;64.96
37634;BME280;32048;49.902;22.508;2023-04-10T12:53:30;99058.31;;;14.44;68.00
37634;BME280;32048;49.902;22.508;2023-04-10T12:56:03;99050.84;;;14.36;70.99
37634;BME280;32048;49.902;22.508;2023-04-10T12:58:31;99059.28;;;14.43;67.52
37634;BME280;32048;49.902;22.508;2023-04-10T13:01:04;99050.78;;;14.79;68.20
37634;BME280;32048;49.902;22.508;2023-04-10T13:03:37;99051.38;;;15.11;66.22
37634;BME280;32048;49.902;22.508;2023-04-10T13:06:07;99051.44;;;15.37;64.52
37634;BME280;32048;49.902;22.508;2023-04-10T13:08:34;99050.50;;;15.51;64.93
37634;BME280;32048;49.902;22.508;2023-04-10T13:11:01;99041.00;;;15.47;64.58
37634;BME280;32048;49.902;22.508;2023-04-10T13:13:29;99040.56;;;15.40;66.59
37634;BME280;32048;49.902;22.508;2023-04-10T13:15:59;99048.09;;;15.21;65.69
37634;BME280;32048;49.902;22.508;2023-04-10T13:18:27;99033.38;;;15.15;70.94
37634;BME280;32048;49.902;22.508;2023-04-10T13:20:54;99031.88;;;15.11;67.38
37634;BME280;32048;49.902;22.508;2023-04-10T13:23:21;99031.31;;;15.06;66.08